sensor_id;sensor_type;location;lat;lon;timestamp;P1;durP1;ratioP1;P2;durP2;ratioP2
25569;SDS011;17955;45.542;9.238;2022-12-17T00:00:41;0.80;;;0.80;;
25569;SDS011;17955;45.542;9.238;2022-12-17T00:03:27;1.45;;;1.35;;
25569;SDS011;17955;45.542;9.238;2022-12-17T00:06:12;0.70;;;0.70;;
25569;SDS011;17955;45.542;9.238;2022-12-17T00:08:57;0.70;;;0.70;;
25569;SDS011;17955;45.542;9.238;2022-12-17T00:11:42;0.70;;;0.70;;
25569;SDS011;17955;45.542;9.238;2022-12-17T00:14:27;1.65;;;1.30;;
25569;SDS011;17955;45.542;9.238;2022-12-17T00:17:12;0.98;;;0.98;;
25569;SDS011;17955;45.542;9.238;2022-12-17T00:19:59;0.82;;;0.82;;
25569;SDS011;17955;45.542;9.238;2022-12-17T00:22:44;0.70;;;0.70;;
25569;SDS011;17955;45.542;9.238;2022-12-17T00:25:29;2.25;;;2.08;;
25569;SDS011;17955;45.542;9.238;2022-12-17T00:28:16;0.95;;;0.95;;
25569;SDS011;17955;45.542;9.238;2022-12-17T00:31:01;0.70;;;0.70;;
25569;SDS011;17955;45.542;9.238;2022-12-17T00:33:46;3.53;;;2.38;;
25569;SDS011;17955;45.542;9.238;2022-12-17T00:36:32;2.10;;;1.55;;
25569;SDS011;17955;45.542;9.238;2022-12-17T00:39:17;0.75;;;0.75;;
25569;SDS011;17955;45.542;9.238;2022-12-17T00:42:02;2.17;;;1.98;;
25569;SDS011;17955;45.542;9.238;2022-12-17T00:44:47;0.93;;;0.93;;
25569;SDS011;17955;45.542;9.238;2022-12-17T00:47:32;2.60;;;2.25;;
25569;SDS011;17955;45.542;9.238;2022-12-17T00:50:17;1.58;;;1.48;;
25569;SDS011;17955;45.542;9.238;2022-12-17T00:52:59;0.80;;;0.80;;
25569;SDS011;17955;45.542;9.238;2022-12-17T00:55:44;1.00;;;1.00;;
25569;SDS011;17955;45.542;9.238;2022-12-17T00:58:28;3.25;;;2.60;;
25569;SDS011;17955;45.542;9.238;2022-12-17T01:01:13;1.00;;;1.00;;
25569;SDS011;17955;45.542;9.238;2022-12-17T01:03:59;0.60;;;0.60;;
25569;SDS011;17955;45.542;9.238;2022-12-17T01:06:44;2.13;;;2.03;;
25569;SDS011;17955;45.542;9.238;2022-12-17T01:09:30;0.70;;;0.70;;
25569;SDS011;17955;45.542;9.238;2022-12-17T01:12:15;1.08;;;1.08;;
25569;SDS011;17955;45.542;9.238;2022-12-17T01:15:00;0.70;;;0.70;;
25569;SDS011;17955;45.542;9.238;2022-12-17T01:17:45;0.70;;;0.70;;
25569;SDS011;17955;45.542;9.238;2022-12-17T01:20:30;1.85;;;1.73;;
25569;SDS011;17955;45.542;9.238;2022-12-17T01:23:15;2.03;;;1.42;;
25569;SDS011;17955;45.542;9.238;2022-12-17T01:26:02;1.23;;;1.13;;
25569;SDS011;17955;45.542;9.238;2022-12-17T01:28:46;1.10;;;1.10;;
25569;SDS011;17955;45.542;9.238;2022-12-17T01:31:31;1.45;;;1.35;;
25569;SDS011;17955;45.542;9.238;2022-12-17T01:34:16;0.80;;;0.80;;
25569;SDS011;17955;45.542;9.238;2022-12-17T01:37:01;0.80;;;0.80;;
25569;SDS011;17955;45.542;9.238;2022-12-17T01:39:46;1.65;;;1.55;;
25569;SDS011;17955;45.542;9.238;2022-12-17T01:42:39;2.65;;;2.45;;
25569;SDS011;17955;45.542;9.238;2022-12-17T01:45:24;0.80;;;0.80;;
25569;SDS011;17955;45.542;9.238;2022-12-17T01:48:12;0.80;;;0.80;;
25569;SDS011;17955;45.542;9.238;2022-12-17T01:50:58;0.77;;;0.77;;
25569;SDS011;17955;45.542;9.238;2022-12-17T01:53:44;1.27;;;1.23;;
25569;SDS011;17955;45.542;9.238;2022-12-17T01:56:41;0.80;;;0.80;;
25569;SDS011;17955;45.542;9.238;2022-12-17T01:59:31;1.25;;;1.23;;
25569;SDS011;17955;45.542;9.238;2022-12-17T02:02:17;0.80;;;0.80;;
25569;SDS011;17955;45.542;9.238;2022-12-17T02:05:02;0.70;;;0.70;;
25569;SDS011;17955;45.542;9.238;2022-12-17T02:07:49;0.70;;;0.70;;
25569;SDS011;17955;45.542;9.238;2022-12-17T02:10:39;0.70;;;0.70;;
25569;SDS011;17955;45.542;9.238;2022-12-17T02:13:28;0.70;;;0.70;;
25569;SDS011;17955;45.542;9.238;2022-12-17T02:16:16;0.70;;;0.70;;
25569;SDS011;17955;45.542;9.238;2022-12-17T02:19:13;0.80;;;0.80;;
25569;SDS011;17955;45.542;9.238;2022-12-17T02:22:03;0.80;;;0.80;;
25569;SDS011;17955;45.542;9.238;2022-12-17T02:24:50;1.55;;;1.45;;
25569;SDS011;17955;45.542;9.238;2022-12-17T02:27:38;0.80;;;0.80;;
25569;SDS011;17955;45.542;9.238;2022-12-17T02:30:23;1.38;;;1.10;;
25569;SDS011;17955;45.542;9.238;2022-12-17T02:33:08;0.70;;;0.70;;
25569;SDS011;17955;45.542;9.238;2022-12-17T02:35:56;0.70;;;0.70;;
25569;SDS011;17955;45.542;9.238;2022-12-17T02:38:42;0.70;;;0.70;;
25569;SDS011;17955;45.542;9.238;2022-12-17T02:41:29;0.80;;;0.80;;
25569;SDS011;17955;45.542;9.238;2022-12-17T02:44:17;0.70;;;0.70;;
25569;SDS011;17955;45.542;9.238;2022-12-17T02:47:04;0.85;;;0.85;;
25569;SDS011;17955;45.542;9.238;2022-12-17T02:49:50;1.65;;;1.55;;
25569;SDS011;17955;45.542;9.238;2022-12-17T02:52:38;1.40;;;1.35;;
25569;SDS011;17955;45.542;9.238;2022-12-17T02:55:23;0.70;;;0.70;;
25569;SDS011;17955;45.542;9.238;2022-12-17T02:58:07;0.90;;;0.90;;
25569;SDS011;17955;45.542;9.238;2022-12-17T03:00:53;0.95;;;0.95;;
25569;SDS011;17955;45.542;9.238;2022-12-17T03:03:38;1.00;;;1.00;;
25569;SDS011;17955;45.542;9.238;2022-12-17T03:06:23;0.60;;;0.60;;
25569;SDS011;17955;45.542;9.238;2022-12-17T03:09:08;0.70;;;0.70;;
25569;SDS011;17955;45.542;9.238;2022-12-17T03:11:54;0.90;;;0.90;;
25569;SDS011;17955;45.542;9.238;2022-12-17T03:14:39;1.65;;;1.55;;
25569;SDS011;17955;45.542;9.238;2022-12-17T03:17:25;1.00;;;1.00;;
25569;SDS011;17955;45.542;9.238;2022-12-17T03:20:10;0.80;;;0.80;;
25569;SDS011;17955;45.542;9.238;2022-12-17T03:23:00;0.80;;;0.80;;
25569;SDS011;17955;45.542;9.238;2022-12-17T03:25:45;0.80;;;0.80;;
25569;SDS011;17955;45.542;9.238;2022-12-17T03:28:30;1.15;;;1.15;;
25569;SDS011;17955;45.542;9.238;2022-12-17T03:31:14;5.47;;;4.95;;
25569;SDS011;17955;45.542;9.238;2022-12-17T03:34:00;0.80;;;0.80;;
25569;SDS011;17955;45.542;9.238;2022-12-17T03:36:45;0.80;;;0.80;;
25569;SDS011;17955;45.542;9.238;2022-12-17T03:39:30;1.05;;;1.05;;
25569;SDS011;17955;45.542;9.238;2022-12-17T03:42:15;0.80;;;0.80;;
25569;SDS011;17955;45.542;9.238;2022-12-17T03:45:06;0.80;;;0.80;;
25569;SDS011;17955;45.542;9.238;2022-12-17T03:48:01;2.08;;;1.95;;
25569;SDS011;17955;45.542;9.238;2022-12-17T03:50:48;0.93;;;0.93;;
25569;SDS011;17955;45.542;9.238;2022-12-17T03:53:32;0.60;;;0.60;;
25569;SDS011;17955;45.542;9.238;2022-12-17T03:56:32;0.70;;;0.70;;
25569;SDS011;17955;45.542;9.238;2022-12-17T03:59:17;0.80;;;0.80;;
25569;SDS011;17955;45.542;9.238;2022-12-17T04:02:02;0.90;;;0.90;;
25569;SDS011;17955;45.542;9.238;2022-12-17T04:04:47;0.98;;;0.98;;
25569;SDS011;17955;45.542;9.238;2022-12-17T04:07:34;0.80;;;0.80;;
25569;SDS011;17955;45.542;9.238;2022-12-17T04:13:04;0.70;;;0.70;;
25569;SDS011;17955;45.542;9.238;2022-12-17T04:16:00;0.75;;;0.75;;
25569;SDS011;17955;45.542;9.238;2022-12-17T04:18:44;0.90;;;0.90;;
25569;SDS011;17955;45.542;9.238;2022-12-17T04:21:29;0.73;;;0.73;;
25569;SDS011;17955;45.542;9.238;2022-12-17T04:24:15;0.70;;;0.70;;
25569;SDS011;17955;45.542;9.238;2022-12-17T04:27:00;0.70;;;0.70;;
25569;SDS011;17955;45.542;9.238;2022-12-17T04:29:45;1.02;;;1.02;;
25569;SDS011;17955;45.542;9.238;2022-12-17T04:32:30;1.20;;;1.17;;
25569;SDS011;17955;45.542;9.238;2022-12-17T04:35:15;0.90;;;0.90;;
25569;SDS011;17955;45.542;9.238;2022-12-17T04:38:00;0.73;;;0.73;;
25569;SDS011;17955;45.542;9.238;2022-12-17T04:40:47;0.93;;;0.93;;
25569;SDS011;17955;45.542;9.238;2022-12-17T04:43:32;0.70;;;0.70;;
25569;SDS011;17955;45.542;9.238;2022-12-17T04:46:17;0.80;;;0.80;;
25569;SDS011;17955;45.542;9.238;2022-12-17T04:49:02;1.25;;;1.15;;
25569;SDS011;17955;45.542;9.238;2022-12-17T04:52:02;1.77;;;1.67;;
25569;SDS011;17955;45.542;9.238;2022-12-17T04:54:47;0.70;;;0.70;;
25569;SDS011;17955;45.542;9.238;2022-12-17T04:57:33;0.80;;;0.80;;
25569;SDS011;17955;45.542;9.238;2022-12-17T05:00:18;0.70;;;0.70;;
25569;SDS011;17955;45.542;9.238;2022-12-17T05:03:03;0.70;;;0.70;;
25569;SDS011;17955;45.542;9.238;2022-12-17T05:05:48;1.10;;;1.10;;
25569;SDS011;17955;45.542;9.238;2022-12-17T05:08:33;0.80;;;0.80;;
25569;SDS011;17955;45.542;9.238;2022-12-17T05:11:18;0.75;;;0.75;;
25569;SDS011;17955;45.542;9.238;2022-12-17T05:14:04;0.70;;;0.70;;
25569;SDS011;17955;45.542;9.238;2022-12-17T05:16:49;0.70;;;0.70;;
25569;SDS011;17955;45.542;9.238;2022-12-17T05:19:34;1.30;;;1.25;;
25569;SDS011;17955;45.542;9.238;2022-12-17T05:22:19;1.83;;;1.67;;
25569;SDS011;17955;45.542;9.238;2022-12-17T05:25:05;0.70;;;0.70;;
25569;SDS011;17955;45.542;9.238;2022-12-17T05:27:49;0.90;;;0.90;;
25569;SDS011;17955;45.542;9.238;2022-12-17T05:30:36;0.70;;;0.70;;
25569;SDS011;17955;45.542;9.238;2022-12-17T05:33:21;0.70;;;0.70;;
25569;SDS011;17955;45.542;9.238;2022-12-17T05:36:06;1.17;;;1.17;;
25569;SDS011;17955;45.542;9.238;2022-12-17T05:38:51;0.70;;;0.70;;
25569;SDS011;17955;45.542;9.238;2022-12-17T05:41:37;0.60;;;0.60;;
25569;SDS011;17955;45.542;9.238;2022-12-17T05:44:22;0.60;;;0.60;;
25569;SDS011;17955;45.542;9.238;2022-12-17T05:47:08;0.70;;;0.70;;
25569;SDS011;17955;45.542;9.238;2022-12-17T05:49:53;0.70;;;0.70;;
25569;SDS011;17955;45.542;9.238;2022-12-17T05:52:38;0.70;;;0.70;;
25569;SDS011;17955;45.542;9.238;2022-12-17T05:55:23;0.75;;;0.75;;
25569;SDS011;17955;45.542;9.238;2022-12-17T05:58:09;0.70;;;0.70;;
25569;SDS011;17955;45.542;9.238;2022-12-17T06:00:54;0.80;;;0.80;;
25569;SDS011;17955;45.542;9.238;2022-12-17T06:03:40;0.80;;;0.80;;
25569;SDS011;17955;45.542;9.238;2022-12-17T06:09:09;0.80;;;0.80;;
25569;SDS011;17955;45.542;9.238;2022-12-17T06:11:55;0.70;;;0.70;;
25569;SDS011;17955;45.542;9.238;2022-12-17T06:14:39;0.70;;;0.70;;
25569;SDS011;17955;45.542;9.238;2022-12-17T06:17:25;0.70;;;0.70;;
25569;SDS011;17955;45.542;9.238;2022-12-17T06:20:11;1.52;;;1.45;;
25569;SDS011;17955;45.542;9.238;2022-12-17T06:22:59;1.20;;;1.17;;
25569;SDS011;17955;45.542;9.238;2022-12-17T06:25:44;0.70;;;0.70;;
25569;SDS011;17955;45.542;9.238;2022-12-17T06:28:29;0.85;;;0.85;;
25569;SDS011;17955;45.542;9.238;2022-12-17T06:31:14;0.63;;;0.63;;
25569;SDS011;17955;45.542;9.238;2022-12-17T06:33:59;0.80;;;0.80;;
25569;SDS011;17955;45.542;9.238;2022-12-17T06:36:46;0.77;;;0.77;;
25569;SDS011;17955;45.542;9.238;2022-12-17T06:39:31;0.70;;;0.70;;
25569;SDS011;17955;45.542;9.238;2022-12-17T06:42:16;0.90;;;0.90;;
25569;SDS011;17955;45.542;9.238;2022-12-17T06:45:01;1.58;;;1.05;;
25569;SDS011;17955;45.542;9.238;2022-12-17T06:47:46;0.70;;;0.70;;
25569;SDS011;17955;45.542;9.238;2022-12-17T06:50:31;5.65;;;2.88;;
25569;SDS011;17955;45.542;9.238;2022-12-17T06:53:13;0.70;;;0.70;;
25569;SDS011;17955;45.542;9.238;2022-12-17T06:58:43;0.70;;;0.70;;
25569;SDS011;17955;45.542;9.238;2022-12-17T07:01:29;0.70;;;0.70;;
25569;SDS011;17955;45.542;9.238;2022-12-17T07:04:14;0.70;;;0.70;;
25569;SDS011;17955;45.542;9.238;2022-12-17T07:06:59;0.70;;;0.70;;
25569;SDS011;17955;45.542;9.238;2022-12-17T07:09:45;0.70;;;0.70;;
25569;SDS011;17955;45.542;9.238;2022-12-17T07:12:30;0.70;;;0.70;;
25569;SDS011;17955;45.542;9.238;2022-12-17T07:15:15;0.70;;;0.70;;
25569;SDS011;17955;45.542;9.238;2022-12-17T07:18:02;0.88;;;0.88;;
25569;SDS011;17955;45.542;9.238;2022-12-17T07:20:48;0.80;;;0.80;;
25569;SDS011;17955;45.542;9.238;2022-12-17T07:23:35;0.80;;;0.80;;
25569;SDS011;17955;45.542;9.238;2022-12-17T07:26:22;0.80;;;0.80;;
25569;SDS011;17955;45.542;9.238;2022-12-17T07:29:07;0.70;;;0.70;;
25569;SDS011;17955;45.542;9.238;2022-12-17T07:31:52;0.70;;;0.70;;
25569;SDS011;17955;45.542;9.238;2022-12-17T07:34:37;0.70;;;0.70;;
25569;SDS011;17955;45.542;9.238;2022-12-17T07:37:22;0.80;;;0.80;;
25569;SDS011;17955;45.542;9.238;2022-12-17T07:40:07;0.80;;;0.80;;
25569;SDS011;17955;45.542;9.238;2022-12-17T07:42:54;0.70;;;0.70;;
25569;SDS011;17955;45.542;9.238;2022-12-17T07:48:24;0.70;;;0.70;;
25569;SDS011;17955;45.542;9.238;2022-12-17T07:51:09;0.70;;;0.70;;
25569;SDS011;17955;45.542;9.238;2022-12-17T07:53:54;3.63;;;2.55;;
25569;SDS011;17955;45.542;9.238;2022-12-17T07:56:39;0.70;;;0.70;;
25569;SDS011;17955;45.542;9.238;2022-12-17T07:59:26;0.70;;;0.70;;
25569;SDS011;17955;45.542;9.238;2022-12-17T08:02:11;0.70;;;0.70;;
25569;SDS011;17955;45.542;9.238;2022-12-17T08:04:56;0.50;;;0.50;;
25569;SDS011;17955;45.542;9.238;2022-12-17T08:07:41;0.60;;;0.60;;
25569;SDS011;17955;45.542;9.238;2022-12-17T08:10:26;0.60;;;0.60;;
25569;SDS011;17955;45.542;9.238;2022-12-17T08:13:11;0.70;;;0.70;;
25569;SDS011;17955;45.542;9.238;2022-12-17T08:15:57;0.70;;;0.70;;
25569;SDS011;17955;45.542;9.238;2022-12-17T08:18:42;0.70;;;0.70;;
25569;SDS011;17955;45.542;9.238;2022-12-17T08:21:27;0.90;;;0.90;;
25569;SDS011;17955;45.542;9.238;2022-12-17T08:24:12;0.70;;;0.70;;
25569;SDS011;17955;45.542;9.238;2022-12-17T08:26:56;1.13;;;1.13;;
25569;SDS011;17955;45.542;9.238;2022-12-17T08:29:42;1.02;;;0.98;;
25569;SDS011;17955;45.542;9.238;2022-12-17T08:32:28;1.15;;;1.05;;
25569;SDS011;17955;45.542;9.238;2022-12-17T08:35:13;0.70;;;0.70;;
25569;SDS011;17955;45.542;9.238;2022-12-17T08:37:59;0.70;;;0.70;;
25569;SDS011;17955;45.542;9.238;2022-12-17T08:40:44;0.70;;;0.70;;
25569;SDS011;17955;45.542;9.238;2022-12-17T08:43:29;0.70;;;0.70;;
25569;SDS011;17955;45.542;9.238;2022-12-17T08:46:15;0.70;;;0.70;;
25569;SDS011;17955;45.542;9.238;2022-12-17T08:49:01;0.70;;;0.70;;
25569;SDS011;17955;45.542;9.238;2022-12-17T08:51:46;1.77;;;1.67;;
25569;SDS011;17955;45.542;9.238;2022-12-17T08:54:31;0.70;;;0.70;;
25569;SDS011;17955;45.542;9.238;2022-12-17T08:57:16;0.80;;;0.80;;
25569;SDS011;17955;45.542;9.238;2022-12-17T09:00:02;0.88;;;0.88;;
25569;SDS011;17955;45.542;9.238;2022-12-17T09:02:46;0.70;;;0.70;;
25569;SDS011;17955;45.542;9.238;2022-12-17T09:05:33;0.70;;;0.70;;
25569;SDS011;17955;45.542;9.238;2022-12-17T09:08:18;0.70;;;0.70;;
25569;SDS011;17955;45.542;9.238;2022-12-17T09:11:03;0.60;;;0.60;;
25569;SDS011;17955;45.542;9.238;2022-12-17T09:13:48;0.60;;;0.60;;
25569;SDS011;17955;45.542;9.238;2022-12-17T09:16:33;0.70;;;0.70;;
25569;SDS011;17955;45.542;9.238;2022-12-17T09:19:18;0.70;;;0.70;;
25569;SDS011;17955;45.542;9.238;2022-12-17T09:22:04;1.73;;;1.63;;
25569;SDS011;17955;45.542;9.238;2022-12-17T09:24:49;1.48;;;1.38;;
25569;SDS011;17955;45.542;9.238;2022-12-17T09:27:35;0.80;;;0.80;;
25569;SDS011;17955;45.542;9.238;2022-12-17T09:30:20;0.60;;;0.60;;
25569;SDS011;17955;45.542;9.238;2022-12-17T09:33:04;0.70;;;0.70;;
25569;SDS011;17955;45.542;9.238;2022-12-17T09:35:49;0.70;;;0.70;;
25569;SDS011;17955;45.542;9.238;2022-12-17T09:38:36;0.80;;;0.80;;
25569;SDS011;17955;45.542;9.238;2022-12-17T09:41:24;0.70;;;0.70;;
25569;SDS011;17955;45.542;9.238;2022-12-17T09:44:13;0.70;;;0.70;;
25569;SDS011;17955;45.542;9.238;2022-12-17T09:47:01;0.70;;;0.70;;
25569;SDS011;17955;45.542;9.238;2022-12-17T09:49:51;0.70;;;0.70;;
25569;SDS011;17955;45.542;9.238;2022-12-17T09:52:37;0.75;;;0.75;;
25569;SDS011;17955;45.542;9.238;2022-12-17T09:55:26;7.63;;;3.00;;
25569;SDS011;17955;45.542;9.238;2022-12-17T09:58:13;0.70;;;0.70;;
25569;SDS011;17955;45.542;9.238;2022-12-17T10:01:01;0.60;;;0.60;;
25569;SDS011;17955;45.542;9.238;2022-12-17T10:03:47;0.75;;;0.75;;
25569;SDS011;17955;45.542;9.238;2022-12-17T10:06:32;1.35;;;1.30;;
25569;SDS011;17955;45.542;9.238;2022-12-17T10:09:19;0.60;;;0.60;;
25569;SDS011;17955;45.542;9.238;2022-12-17T10:12:10;0.60;;;0.60;;
25569;SDS011;17955;45.542;9.238;2022-12-17T10:17:45;0.70;;;0.70;;
25569;SDS011;17955;45.542;9.238;2022-12-17T10:20:31;0.75;;;0.75;;
25569;SDS011;17955;45.542;9.238;2022-12-17T10:26:02;0.65;;;0.65;;
25569;SDS011;17955;45.542;9.238;2022-12-17T10:28:51;0.60;;;0.60;;
25569;SDS011;17955;45.542;9.238;2022-12-17T10:31:44;0.65;;;0.65;;
25569;SDS011;17955;45.542;9.238;2022-12-17T10:34:34;0.60;;;0.60;;
25569;SDS011;17955;45.542;9.238;2022-12-17T10:37:19;0.60;;;0.60;;
25569;SDS011;17955;45.542;9.238;2022-12-17T10:40:11;2.15;;;2.05;;
25569;SDS011;17955;45.542;9.238;2022-12-17T10:42:58;1.05;;;1.05;;
25569;SDS011;17955;45.542;9.238;2022-12-17T10:45:56;0.68;;;0.68;;
25569;SDS011;17955;45.542;9.238;2022-12-17T10:48:46;0.60;;;0.60;;
25569;SDS011;17955;45.542;9.238;2022-12-17T10:51:33;1.65;;;1.55;;
25569;SDS011;17955;45.542;9.238;2022-12-17T10:54:19;0.70;;;0.70;;
25569;SDS011;17955;45.542;9.238;2022-12-17T10:57:16;0.60;;;0.60;;
25569;SDS011;17955;45.542;9.238;2022-12-17T11:00:13;0.70;;;0.70;;
25569;SDS011;17955;45.542;9.238;2022-12-17T11:03:02;0.60;;;0.60;;
25569;SDS011;17955;45.542;9.238;2022-12-17T11:05:53;0.60;;;0.60;;
25569;SDS011;17955;45.542;9.238;2022-12-17T11:08:38;0.80;;;0.80;;
25569;SDS011;17955;45.542;9.238;2022-12-17T11:11:24;1.25;;;1.15;;
25569;SDS011;17955;45.542;9.238;2022-12-17T11:14:09;0.70;;;0.70;;
25569;SDS011;17955;45.542;9.238;2022-12-17T11:16:57;0.60;;;0.60;;
25569;SDS011;17955;45.542;9.238;2022-12-17T11:19:45;0.60;;;0.60;;
25569;SDS011;17955;45.542;9.238;2022-12-17T11:22:47;0.60;;;0.60;;
25569;SDS011;17955;45.542;9.238;2022-12-17T11:25:33;0.50;;;0.50;;
25569;SDS011;17955;45.542;9.238;2022-12-17T11:28:22;0.90;;;0.90;;
25569;SDS011;17955;45.542;9.238;2022-12-17T11:31:13;0.65;;;0.65;;
25569;SDS011;17955;45.542;9.238;2022-12-17T11:33:59;0.50;;;0.50;;
25569;SDS011;17955;45.542;9.238;2022-12-17T11:36:49;0.73;;;0.73;;
25569;SDS011;17955;45.542;9.238;2022-12-17T11:39:38;0.60;;;0.60;;
25569;SDS011;17955;45.542;9.238;2022-12-17T11:42:25;0.70;;;0.70;;
25569;SDS011;17955;45.542;9.238;2022-12-17T11:45:16;40.10;;;20.98;;
25569;SDS011;17955;45.542;9.238;2022-12-17T11:48:15;35.80;;;19.40;;
25569;SDS011;17955;45.542;9.238;2022-12-17T11:51:05;38.03;;;20.30;;
25569;SDS011;17955;45.542;9.238;2022-12-17T11:53:53;35.20;;;20.17;;
25569;SDS011;17955;45.542;9.238;2022-12-17T11:56:40;36.00;;;20.60;;
25569;SDS011;17955;45.542;9.238;2022-12-17T11:59:27;39.38;;;21.30;;
25569;SDS011;17955;45.542;9.238;2022-12-17T12:02:18;39.47;;;20.75;;
25569;SDS011;17955;45.542;9.238;2022-12-17T12:05:11;38.40;;;18.63;;
25569;SDS011;17955;45.542;9.238;2022-12-17T12:08:00;34.67;;;21.27;;
25569;SDS011;17955;45.542;9.238;2022-12-17T12:10:51;32.50;;;16.77;;
25569;SDS011;17955;45.542;9.238;2022-12-17T12:13:41;34.20;;;19.90;;
25569;SDS011;17955;45.542;9.238;2022-12-17T12:16:31;37.38;;;19.73;;
25569;SDS011;17955;45.542;9.238;2022-12-17T12:19:17;41.50;;;22.15;;
25569;SDS011;17955;45.542;9.238;2022-12-17T12:22:05;42.35;;;22.45;;
25569;SDS011;17955;45.542;9.238;2022-12-17T12:25:03;36.53;;;19.83;;
25569;SDS011;17955;45.542;9.238;2022-12-17T12:27:52;40.17;;;20.42;;
25569;SDS011;17955;45.542;9.238;2022-12-17T12:30:40;40.60;;;20.95;;
25569;SDS011;17955;45.542;9.238;2022-12-17T12:33:30;35.63;;;19.27;;
25569;SDS011;17955;45.542;9.238;2022-12-17T12:36:16;39.20;;;20.33;;
25569;SDS011;17955;45.542;9.238;2022-12-17T12:39:02;41.92;;;20.50;;
25569;SDS011;17955;45.542;9.238;2022-12-17T12:41:49;39.75;;;21.27;;
25569;SDS011;17955;45.542;9.238;2022-12-17T12:44:38;47.42;;;23.60;;
25569;SDS011;17955;45.542;9.238;2022-12-17T12:47:33;32.50;;;18.60;;
25569;SDS011;17955;45.542;9.238;2022-12-17T12:50:20;39.03;;;21.50;;
25569;SDS011;17955;45.542;9.238;2022-12-17T12:53:08;44.30;;;22.40;;
25569;SDS011;17955;45.542;9.238;2022-12-17T12:59:09;51.88;;;25.77;;
25569;SDS011;17955;45.542;9.238;2022-12-17T13:01:55;47.47;;;26.67;;
25569;SDS011;17955;45.542;9.238;2022-12-17T13:04:41;38.10;;;20.25;;
25569;SDS011;17955;45.542;9.238;2022-12-17T13:07:27;46.38;;;24.13;;
25569;SDS011;17955;45.542;9.238;2022-12-17T13:09:55;34.42;;;16.83;;
25569;SDS011;17955;45.542;9.238;2022-12-17T13:12:24;48.75;;;26.38;;
25569;SDS011;17955;45.542;9.238;2022-12-17T13:14:53;46.83;;;24.80;;
25569;SDS011;17955;45.542;9.238;2022-12-17T13:20:22;42.97;;;19.48;;
25569;SDS011;17955;45.542;9.238;2022-12-17T13:22:50;52.95;;;30.55;;
25569;SDS011;17955;45.542;9.238;2022-12-17T13:25:19;59.17;;;29.75;;
25569;SDS011;17955;45.542;9.238;2022-12-17T13:27:46;48.13;;;24.25;;
25569;SDS011;17955;45.542;9.238;2022-12-17T13:30:22;58.15;;;30.75;;
25569;SDS011;17955;45.542;9.238;2022-12-17T13:32:55;74.07;;;35.53;;
25569;SDS011;17955;45.542;9.238;2022-12-17T13:35:28;70.55;;;34.92;;
25569;SDS011;17955;45.542;9.238;2022-12-17T13:38:03;80.30;;;37.53;;
25569;SDS011;17955;45.542;9.238;2022-12-17T13:40:34;82.82;;;37.22;;
25569;SDS011;17955;45.542;9.238;2022-12-17T13:43:11;65.28;;;27.15;;
25569;SDS011;17955;45.542;9.238;2022-12-17T13:45:42;80.75;;;37.95;;
25569;SDS011;17955;45.542;9.238;2022-12-17T13:48:17;78.05;;;38.88;;
25569;SDS011;17955;45.542;9.238;2022-12-17T13:53:14;71.60;;;31.95;;
25569;SDS011;17955;45.542;9.238;2022-12-17T13:55:48;58.83;;;23.00;;
25569;SDS011;17955;45.542;9.238;2022-12-17T13:58:23;66.80;;;32.03;;
25569;SDS011;17955;45.542;9.238;2022-12-17T14:03:21;64.50;;;30.23;;
25569;SDS011;17955;45.542;9.238;2022-12-17T14:05:48;68.97;;;30.52;;
25569;SDS011;17955;45.542;9.238;2022-12-17T14:08:17;63.10;;;29.25;;
25569;SDS011;17955;45.542;9.238;2022-12-17T14:10:46;44.67;;;23.75;;
25569;SDS011;17955;45.542;9.238;2022-12-17T14:13:15;45.40;;;23.40;;
25569;SDS011;17955;45.542;9.238;2022-12-17T14:15:43;35.22;;;17.73;;
25569;SDS011;17955;45.542;9.238;2022-12-17T14:18:11;48.58;;;21.98;;
25569;SDS011;17955;45.542;9.238;2022-12-17T14:20:40;61.90;;;28.40;;
25569;SDS011;17955;45.542;9.238;2022-12-17T14:23:10;64.20;;;23.98;;
25569;SDS011;17955;45.542;9.238;2022-12-17T14:25:41;47.35;;;22.48;;
25569;SDS011;17955;45.542;9.238;2022-12-17T14:28:19;53.60;;;21.98;;
25569;SDS011;17955;45.542;9.238;2022-12-17T14:30:48;70.72;;;23.30;;
25569;SDS011;17955;45.542;9.238;2022-12-17T14:33:24;44.38;;;20.83;;
25569;SDS011;17955;45.542;9.238;2022-12-17T14:35:52;53.83;;;24.17;;
25569;SDS011;17955;45.542;9.238;2022-12-17T14:38:19;58.42;;;26.77;;
25569;SDS011;17955;45.542;9.238;2022-12-17T14:40:51;57.53;;;26.33;;
25569;SDS011;17955;45.542;9.238;2022-12-17T14:43:19;52.38;;;24.50;;
25569;SDS011;17955;45.542;9.238;2022-12-17T14:45:49;52.53;;;24.42;;
25569;SDS011;17955;45.542;9.238;2022-12-17T14:51:37;43.23;;;19.60;;
25569;SDS011;17955;45.542;9.238;2022-12-17T14:54:18;64.13;;;29.13;;
25569;SDS011;17955;45.542;9.238;2022-12-17T14:56:49;50.55;;;21.25;;
25569;SDS011;17955;45.542;9.238;2022-12-17T14:59:29;50.75;;;21.73;;
25569;SDS011;17955;45.542;9.238;2022-12-17T15:01:58;67.10;;;23.55;;
25569;SDS011;17955;45.542;9.238;2022-12-17T15:04:25;34.60;;;15.82;;
25569;SDS011;17955;45.542;9.238;2022-12-17T15:06:53;51.00;;;20.25;;
25569;SDS011;17955;45.542;9.238;2022-12-17T15:09:20;46.50;;;23.65;;
25569;SDS011;17955;45.542;9.238;2022-12-17T15:11:47;33.50;;;15.48;;
25569;SDS011;17955;45.542;9.238;2022-12-17T15:14:16;53.90;;;22.45;;
25569;SDS011;17955;45.542;9.238;2022-12-17T15:16:46;79.28;;;28.92;;
25569;SDS011;17955;45.542;9.238;2022-12-17T15:19:19;53.70;;;21.40;;
25569;SDS011;17955;45.542;9.238;2022-12-17T15:21:46;57.83;;;19.27;;
25569;SDS011;17955;45.542;9.238;2022-12-17T15:24:14;74.55;;;25.60;;
25569;SDS011;17955;45.542;9.238;2022-12-17T15:26:43;41.80;;;17.98;;
25569;SDS011;17955;45.542;9.238;2022-12-17T15:29:10;38.53;;;17.45;;
25569;SDS011;17955;45.542;9.238;2022-12-17T15:31:39;49.10;;;20.48;;
25569;SDS011;17955;45.542;9.238;2022-12-17T15:34:06;69.28;;;24.67;;
25569;SDS011;17955;45.542;9.238;2022-12-17T15:36:33;31.20;;;17.98;;
25569;SDS011;17955;45.542;9.238;2022-12-17T15:39:00;43.83;;;22.75;;
25569;SDS011;17955;45.542;9.238;2022-12-17T15:41:30;50.17;;;23.67;;
25569;SDS011;17955;45.542;9.238;2022-12-17T15:44:15;52.85;;;22.83;;
25569;SDS011;17955;45.542;9.238;2022-12-17T15:46:44;43.53;;;20.95;;
25569;SDS011;17955;45.542;9.238;2022-12-17T15:49:11;40.30;;;18.13;;
25569;SDS011;17955;45.542;9.238;2022-12-17T15:51:38;44.45;;;21.50;;
25569;SDS011;17955;45.542;9.238;2022-12-17T15:54:05;40.20;;;19.10;;
25569;SDS011;17955;45.542;9.238;2022-12-17T15:56:32;47.13;;;19.33;;
25569;SDS011;17955;45.542;9.238;2022-12-17T15:59:01;36.95;;;19.95;;
25569;SDS011;17955;45.542;9.238;2022-12-17T16:01:28;38.22;;;17.42;;
25569;SDS011;17955;45.542;9.238;2022-12-17T16:03:57;47.80;;;22.65;;
25569;SDS011;17955;45.542;9.238;2022-12-17T16:06:24;37.70;;;21.73;;
25569;SDS011;17955;45.542;9.238;2022-12-17T16:08:52;42.90;;;15.35;;
25569;SDS011;17955;45.542;9.238;2022-12-17T16:11:19;34.45;;;19.83;;
25569;SDS011;17955;45.542;9.238;2022-12-17T16:13:46;35.15;;;18.42;;
25569;SDS011;17955;45.542;9.238;2022-12-17T16:16:19;33.92;;;18.10;;
25569;SDS011;17955;45.542;9.238;2022-12-17T16:18:46;41.28;;;17.92;;
25569;SDS011;17955;45.542;9.238;2022-12-17T16:21:15;29.40;;;14.90;;
25569;SDS011;17955;45.542;9.238;2022-12-17T16:23:42;33.92;;;16.38;;
25569;SDS011;17955;45.542;9.238;2022-12-17T16:26:09;39.58;;;18.27;;
25569;SDS011;17955;45.542;9.238;2022-12-17T16:28:37;34.97;;;17.48;;
25569;SDS011;17955;45.542;9.238;2022-12-17T16:31:11;40.08;;;17.80;;
25569;SDS011;17955;45.542;9.238;2022-12-17T16:33:41;44.00;;;19.95;;
25569;SDS011;17955;45.542;9.238;2022-12-17T16:36:10;49.22;;;22.70;;
25569;SDS011;17955;45.542;9.238;2022-12-17T16:38:42;41.95;;;19.70;;
25569;SDS011;17955;45.542;9.238;2022-12-17T16:41:10;50.10;;;21.60;;
25569;SDS011;17955;45.542;9.238;2022-12-17T16:43:37;47.20;;;19.40;;